createdAt,value
2023-04-18T00:01:21.704Z,12.00
2023-04-18T00:03:52.326Z,12.00
2023-04-18T00:06:22.428Z,12.00
2023-04-18T00:08:49.965Z,11.90
2023-04-18T00:11:17.552Z,11.90
2023-04-18T00:13:47.628Z,11.90
2023-04-18T00:16:15.780Z,11.90
2023-04-18T00:18:43.390Z,11.90
2023-04-18T00:21:11.424Z,11.90
2023-04-18T00:23:40.050Z,11.80
2023-04-18T00:26:07.555Z,11.80
2023-04-18T00:28:35.224Z,11.80
2023-04-18T00:31:02.860Z,11.70
2023-04-18T00:33:30.479Z,11.70
2023-04-18T00:35:57.988Z,11.70
2023-04-18T00:38:25.547Z,11.70
2023-04-18T00:40:53.049Z,11.60
2023-04-18T00:43:25.992Z,11.60
2023-04-18T00:45:53.636Z,11.60
2023-04-18T00:48:21.447Z,11.60
2023-04-18T00:50:48.990Z,11.60
2023-04-18T00:53:16.830Z,11.60
2023-04-18T00:55:44.894Z,11.50
2023-04-18T00:58:12.830Z,11.50
2023-04-18T01:00:41.184Z,11.50
2023-04-18T01:03:08.947Z,11.50
2023-04-18T01:05:36.637Z,11.40
2023-04-18T01:08:04.249Z,11.40
2023-04-18T01:10:32.078Z,11.40
2023-04-18T01:13:19.896Z,11.40
2023-04-18T01:15:49.902Z,11.30
2023-04-18T01:18:18.180Z,11.30
2023-04-18T01:20:51.231Z,11.30
2023-04-18T01:23:19.669Z,11.30
2023-04-18T01:25:49.412Z,11.20
2023-04-18T01:28:19.261Z,11.20
2023-04-18T01:30:46.814Z,11.20
2023-04-18T01:33:14.354Z,11.20
2023-04-18T01:35:41.825Z,11.20
2023-04-18T01:38:09.347Z,11.10
2023-04-18T01:40:36.863Z,11.10
2023-04-18T01:43:04.392Z,11.10
2023-04-18T01:45:31.933Z,11.10
2023-04-18T01:47:59.528Z,11.10
2023-04-18T01:50:27.012Z,11.00
2023-04-18T01:52:54.537Z,11.00
2023-04-18T01:55:22.095Z,11.00
2023-04-18T01:57:51.078Z,11.00
2023-04-18T02:00:19.093Z,10.90
2023-04-18T02:02:46.790Z,10.90
2023-04-18T02:05:14.281Z,10.90
2023-04-18T02:07:43.008Z,10.90
2023-04-18T02:10:11.722Z,10.90
2023-04-18T02:12:39.213Z,10.80
2023-04-18T02:15:07.310Z,10.80
2023-04-18T02:17:36.335Z,10.80
2023-04-18T02:20:04.412Z,10.80
2023-04-18T02:22:31.923Z,10.70
2023-04-18T02:24:59.432Z,10.70
2023-04-18T02:27:26.961Z,10.70
2023-04-18T02:29:54.477Z,10.70
2023-04-18T02:32:22.027Z,10.70
2023-04-18T02:34:49.535Z,10.60
2023-04-18T02:37:17.027Z,10.60
2023-04-18T02:39:44.554Z,10.60
2023-04-18T02:42:12.057Z,10.60
2023-04-18T02:44:39.580Z,10.60
2023-04-18T02:47:07.256Z,10.50
2023-04-18T02:49:34.759Z,10.50
2023-04-18T02:52:02.357Z,10.50
2023-04-18T02:54:29.900Z,10.50
2023-04-18T02:56:57.435Z,10.40
2023-04-18T02:59:24.950Z,10.40
2023-04-18T03:01:52.539Z,10.40
2023-04-18T03:04:20.531Z,10.40
2023-04-18T03:06:48.621Z,10.40
2023-04-18T03:09:17.016Z,10.30
2023-04-18T03:11:44.654Z,10.30
2023-04-18T03:14:12.313Z,10.30
2023-04-18T03:16:40.060Z,10.30
2023-04-18T03:19:07.851Z,10.30
2023-04-18T03:21:35.620Z,10.30
2023-04-18T03:24:03.147Z,10.20
2023-04-18T03:26:31.003Z,10.20
2023-04-18T03:28:58.619Z,10.20
2023-04-18T03:31:26.545Z,10.20
2023-04-18T03:33:54.037Z,10.10
2023-04-18T03:36:25.557Z,10.10
2023-04-18T03:38:53.077Z,10.10
2023-04-18T03:41:20.879Z,10.10
2023-04-18T03:43:48.418Z,10.10
2023-04-18T03:46:16.086Z,10.00
2023-04-18T03:48:43.653Z,10.00
2023-04-18T03:51:11.418Z,10.00
2023-04-18T03:53:38.967Z,10.00
2023-04-18T03:56:07.348Z,10.00
2023-04-18T03:58:34.834Z,10.00
2023-04-18T04:01:02.443Z,9.90
2023-04-18T04:03:30.340Z,9.90
2023-04-18T04:05:58.004Z,9.90
2023-04-18T04:08:27.629Z,9.90
2023-04-18T04:10:55.841Z,9.90
2023-04-18T04:13:23.374Z,9.80
2023-04-18T04:15:52.169Z,9.80
2023-04-18T04:18:19.642Z,9.80
2023-04-18T04:20:47.222Z,9.80
2023-04-18T04:23:14.788Z,9.80
2023-04-18T04:25:42.268Z,9.70
2023-04-18T04:28:09.740Z,9.70
2023-04-18T04:30:37.637Z,9.70
2023-04-18T04:33:06.882Z,9.70
2023-04-18T04:35:36.952Z,9.70
2023-04-18T04:38:04.470Z,9.60
2023-04-18T04:40:31.932Z,9.60
2023-04-18T04:42:59.435Z,9.60
2023-04-18T04:45:27.062Z,9.60
2023-04-18T04:47:54.812Z,9.60
2023-04-18T04:50:22.479Z,9.60
2023-04-18T04:52:50.232Z,9.60
2023-04-18T04:55:19.185Z,9.50
2023-04-18T04:57:47.999Z,9.50
2023-04-18T05:00:21.046Z,9.50
2023-04-18T05:02:49.513Z,9.50
2023-04-18T05:05:17.402Z,9.50
2023-04-18T05:07:44.909Z,9.50
2023-04-18T05:10:12.583Z,9.50
2023-04-18T05:12:40.092Z,9.40
2023-04-18T05:15:08.016Z,9.50
2023-04-18T05:17:35.664Z,9.40
2023-04-18T05:20:03.563Z,9.40
2023-04-18T05:22:31.237Z,9.40
2023-04-18T05:24:58.737Z,9.40
2023-04-18T05:27:26.969Z,9.40
2023-04-18T05:29:55.026Z,9.40
2023-04-18T05:32:22.705Z,9.40
2023-04-18T05:34:50.213Z,9.40
2023-04-18T05:37:18.031Z,9.30
2023-04-18T05:39:45.609Z,9.30
2023-04-18T05:42:13.112Z,9.30
2023-04-18T05:44:40.678Z,9.30
2023-04-18T05:47:08.250Z,9.30
2023-04-18T05:49:35.788Z,9.30
2023-04-18T05:52:03.658Z,9.30
2023-04-18T05:54:31.226Z,9.30
2023-04-18T05:56:58.780Z,9.30
2023-04-18T05:59:27.178Z,9.30
2023-04-18T06:01:55.243Z,9.30
2023-04-18T06:04:23.033Z,9.30
2023-04-18T06:06:50.904Z,9.30
2023-04-18T06:09:19.032Z,9.30
2023-04-18T06:11:46.941Z,9.30
2023-04-18T06:14:14.570Z,9.30
2023-04-18T06:16:42.314Z,9.20
2023-04-18T06:19:09.850Z,9.20
2023-04-18T06:21:37.468Z,9.20
2023-04-18T06:24:05.057Z,9.20
2023-04-18T06:26:32.907Z,9.20
2023-04-18T06:29:00.553Z,9.20
2023-04-18T06:31:28.114Z,9.20
2023-04-18T06:33:55.757Z,9.20
2023-04-18T06:36:23.319Z,9.30
2023-04-18T06:38:51.139Z,9.20
2023-04-18T06:41:18.637Z,9.30
2023-04-18T06:44:01.598Z,9.30
2023-04-18T06:46:31.005Z,9.30
2023-04-18T06:48:58.649Z,9.30
2023-04-18T06:51:26.183Z,9.30
2023-04-18T06:53:54.056Z,9.30
2023-04-18T06:56:21.982Z,9.30
2023-04-18T06:58:53.139Z,9.30
2023-04-18T07:01:21.190Z,9.30
2023-04-18T07:03:48.914Z,9.40
2023-04-18T07:06:16.603Z,9.40
2023-04-18T07:08:44.091Z,9.40
2023-04-18T07:11:13.553Z,9.40
2023-04-18T07:13:41.041Z,9.40
2023-04-18T07:16:10.223Z,9.40
2023-04-18T07:18:38.539Z,9.40
2023-04-18T07:21:09.677Z,9.40
2023-04-18T07:23:37.368Z,9.40
2023-04-18T07:26:05.964Z,9.40
2023-04-18T07:28:33.958Z,9.40
2023-04-18T07:31:03.325Z,9.40
2023-04-18T07:33:34.130Z,9.40
2023-04-18T07:36:03.292Z,9.50
2023-04-18T07:38:31.017Z,9.50
2023-04-18T07:41:00.146Z,9.50
2023-04-18T07:43:27.868Z,9.50
2023-04-18T07:45:55.545Z,9.50
2023-04-18T07:48:23.652Z,9.50
2023-04-18T07:50:51.376Z,9.50
2023-04-18T07:53:18.952Z,9.50
2023-04-18T07:55:46.973Z,9.60
2023-04-18T07:58:15.039Z,9.60
2023-04-18T08:00:44.158Z,9.60
2023-04-18T08:03:12.854Z,9.60
2023-04-18T08:05:42.347Z,9.70
2023-04-18T08:08:11.673Z,9.70
2023-04-18T08:10:39.553Z,9.70
2023-04-18T08:13:08.324Z,9.70
2023-04-18T08:15:36.224Z,9.70
2023-04-18T08:18:03.982Z,9.80
2023-04-18T08:20:31.813Z,9.80
2023-04-18T08:23:07.403Z,9.80
2023-04-18T08:25:39.312Z,9.80
2023-04-18T08:28:06.958Z,9.80
2023-04-18T08:30:34.532Z,9.90
2023-04-18T08:33:02.748Z,9.90
2023-04-18T08:35:30.338Z,9.90
2023-04-18T08:37:57.916Z,10.00
2023-04-18T08:40:25.522Z,10.00
2023-04-18T08:42:54.169Z,10.00
2023-04-18T08:45:21.810Z,10.10
2023-04-18T08:47:49.444Z,10.10
2023-04-18T08:50:17.539Z,10.20
2023-04-18T08:52:54.174Z,10.20
2023-04-18T08:55:24.598Z,10.20
2023-04-18T08:57:55.533Z,10.30
2023-04-18T09:00:24.278Z,10.30
2023-04-18T09:02:57.170Z,10.30
2023-04-18T09:05:27.093Z,10.30
2023-04-18T09:07:56.709Z,10.40
2023-04-18T09:10:35.206Z,10.40
2023-04-18T09:13:04.707Z,10.40
2023-04-18T09:15:32.877Z,10.50
2023-04-18T09:18:03.518Z,10.60
2023-04-18T09:20:45.134Z,10.60
2023-04-18T09:23:23.933Z,10.60
2023-04-18T09:25:52.624Z,10.60
2023-04-18T09:28:29.054Z,10.60
2023-04-18T09:31:12.164Z,10.70
2023-04-18T09:33:46.610Z,10.70
2023-04-18T09:36:21.573Z,10.70
2023-04-18T09:38:52.577Z,10.80
2023-04-18T09:41:23.623Z,10.80
2023-04-18T09:44:07.800Z,11.10
2023-04-18T09:46:36.072Z,11.20
2023-04-18T09:49:03.676Z,11.20
2023-04-18T09:51:33.627Z,11.30
2023-04-18T09:54:02.214Z,11.40
2023-04-18T09:56:32.972Z,11.40
2023-04-18T09:59:34.456Z,11.50
2023-04-18T10:02:08.348Z,11.50
2023-04-18T10:04:37.266Z,11.60
2023-04-18T10:07:05.479Z,11.60
2023-04-18T10:09:35.752Z,11.70
2023-04-18T10:12:03.920Z,11.80
2023-04-18T10:14:34.150Z,11.80
2023-04-18T10:17:01.909Z,11.90
2023-04-18T10:19:30.518Z,11.90
2023-04-18T10:21:59.891Z,11.90
2023-04-18T10:24:46.330Z,12.00
2023-04-18T10:27:14.195Z,12.00
2023-04-18T10:29:53.994Z,12.10
2023-04-18T10:32:24.388Z,12.10
2023-04-18T10:34:54.574Z,12.20
2023-04-18T10:37:22.244Z,12.20
2023-04-18T10:39:58.839Z,12.30
2023-04-18T10:42:48.222Z,12.30
2023-04-18T10:45:22.705Z,12.30
2023-04-18T10:47:51.135Z,12.40
2023-04-18T10:50:18.693Z,12.40
2023-04-18T10:52:46.502Z,12.50
2023-04-18T10:55:25.994Z,12.50
2023-04-18T10:57:56.438Z,12.50
2023-04-18T11:00:24.383Z,12.50
2023-04-18T11:02:57.985Z,12.60
2023-04-18T11:05:28.913Z,12.60
2023-04-18T11:07:56.602Z,12.60
2023-04-18T11:10:26.886Z,12.70
2023-04-18T11:12:55.905Z,12.70
2023-04-18T11:15:25.180Z,12.80
2023-04-18T11:18:01.738Z,12.80
2023-04-18T11:20:37.242Z,12.80
2023-04-18T11:23:04.780Z,12.90
2023-04-18T11:25:37.250Z,12.90
2023-04-18T11:28:05.435Z,12.90
2023-04-18T11:30:42.847Z,13.00
2023-04-18T11:33:11.954Z,13.00
2023-04-18T11:35:44.322Z,13.00
2023-04-18T11:38:16.147Z,13.10
2023-04-18T11:40:51.343Z,13.10
2023-04-18T11:43:26.120Z,13.20
2023-04-18T11:45:58.148Z,13.20
2023-04-18T11:48:38.524Z,13.20
2023-04-18T11:51:07.188Z,13.30
2023-04-18T11:53:36.253Z,13.30
2023-04-18T11:56:04.572Z,13.30
2023-04-18T11:58:33.387Z,13.40
2023-04-18T12:01:16.783Z,13.40
2023-04-18T12:04:05.503Z,13.40
2023-04-18T12:06:50.530Z,13.40
2023-04-18T12:09:19.368Z,13.50
2023-04-18T12:12:07.082Z,13.50
2023-04-18T12:14:36.538Z,13.50
2023-04-18T12:17:04.530Z,13.60
2023-04-18T12:19:32.998Z,13.60
2023-04-18T12:22:05.518Z,13.60
2023-04-18T12:24:33.266Z,13.70
2023-04-18T12:27:00.816Z,13.70
2023-04-18T12:29:29.365Z,13.80
2023-04-18T12:31:57.163Z,13.80
2023-04-18T12:34:24.783Z,13.80
2023-04-18T12:36:52.624Z,13.80
2023-04-18T12:39:20.357Z,13.90
2023-04-18T12:41:49.640Z,13.90
2023-04-18T12:44:17.891Z,13.90
2023-04-18T12:46:45.534Z,13.90
2023-04-18T12:49:13.129Z,14.00
2023-04-18T12:51:41.037Z,13.90
2023-04-18T12:54:08.656Z,14.00
2023-04-18T12:56:36.497Z,14.00
2023-04-18T12:59:04.214Z,14.00
2023-04-18T13:01:31.807Z,14.10
2023-04-18T13:04:10.841Z,14.10
2023-04-18T13:06:40.589Z,14.10
2023-04-18T13:09:08.442Z,14.10
2023-04-18T13:11:35.983Z,14.10
2023-04-18T13:14:03.620Z,14.20
2023-04-18T13:16:31.541Z,14.20
2023-04-18T13:18:59.117Z,14.20
2023-04-18T13:21:26.950Z,14.20
2023-04-18T13:23:54.700Z,14.20
2023-04-18T13:26:22.236Z,14.20
2023-04-18T13:28:50.450Z,14.30
2023-04-18T13:31:18.045Z,14.30
2023-04-18T13:33:45.705Z,14.30
2023-04-18T13:36:13.343Z,14.30
2023-04-18T13:38:41.475Z,14.30
2023-04-18T13:41:12.696Z,14.30
2023-04-18T13:43:41.218Z,14.40
2023-04-18T13:46:08.992Z,14.30
2023-04-18T13:48:36.541Z,14.40
2023-04-18T13:51:04.174Z,14.40
2023-04-18T13:53:31.774Z,14.40
2023-04-18T13:56:01.450Z,14.40
2023-04-18T13:58:29.032Z,14.50
2023-04-18T14:00:56.845Z,14.40
2023-04-18T14:03:24.528Z,14.50
2023-04-18T14:05:52.150Z,14.50
2023-04-18T14:08:19.728Z,14.50
2023-04-18T14:10:49.518Z,14.50
2023-04-18T14:13:17.000Z,14.50
2023-04-18T14:15:44.693Z,14.50
2023-04-18T14:18:12.256Z,14.50
2023-04-18T14:20:39.912Z,14.50
2023-04-18T14:23:07.537Z,14.50
2023-04-18T14:25:35.245Z,14.60
2023-04-18T14:28:09.881Z,14.50
2023-04-18T14:30:38.923Z,14.60
2023-04-18T14:33:07.414Z,14.60
2023-04-18T14:35:35.047Z,14.60
2023-04-18T14:38:02.749Z,14.60
2023-04-18T14:40:32.144Z,14.60
2023-04-18T14:43:00.658Z,14.60
2023-04-18T14:45:28.492Z,14.60
2023-04-18T14:47:56.303Z,14.60
2023-04-18T14:50:24.008Z,14.60
2023-04-18T14:52:52.022Z,14.60
2023-04-18T14:55:22.557Z,14.60
2023-04-18T14:57:50.114Z,14.60
2023-04-18T15:00:19.652Z,14.60
2023-04-18T15:02:47.555Z,14.60
2023-04-18T15:05:15.580Z,14.60
2023-04-18T15:07:44.796Z,14.60
2023-04-18T15:10:13.292Z,14.60
2023-04-18T15:12:41.859Z,14.60
2023-04-18T15:15:09.698Z,14.60
2023-04-18T15:17:37.260Z,14.60
2023-04-18T15:20:07.420Z,14.60
2023-04-18T15:22:35.954Z,14.60
2023-04-18T15:25:04.881Z,14.60
2023-04-18T15:27:32.464Z,14.60
2023-04-18T15:29:59.996Z,14.60
2023-04-18T15:32:27.664Z,14.60
2023-04-18T15:34:55.157Z,14.60
2023-04-18T15:37:22.688Z,14.60
2023-04-18T15:39:50.726Z,14.60
2023-04-18T15:42:18.360Z,14.60
2023-04-18T15:44:45.950Z,14.60
2023-04-18T15:47:13.800Z,14.60
2023-04-18T15:49:41.522Z,14.60
2023-04-18T15:52:09.070Z,14.60
2023-04-18T15:54:41.420Z,14.60
2023-04-18T15:57:09.893Z,14.50
2023-04-18T15:59:38.075Z,14.60
2023-04-18T16:02:06.903Z,14.50
2023-04-18T16:04:34.759Z,14.50
2023-04-18T16:07:05.345Z,14.50
2023-04-18T16:09:32.904Z,14.50
2023-04-18T16:12:01.842Z,14.50
2023-04-18T16:14:29.345Z,14.50
2023-04-18T16:16:59.316Z,14.50
2023-04-18T16:19:26.928Z,14.50
2023-04-18T16:21:54.470Z,14.50
2023-04-18T16:24:22.184Z,14.50
2023-04-18T16:26:49.766Z,14.50
2023-04-18T16:29:17.645Z,14.50
2023-04-18T16:31:45.223Z,14.50
2023-04-18T16:34:12.974Z,14.50
2023-04-18T16:36:40.918Z,14.50
2023-04-18T16:39:08.545Z,14.50
2023-04-18T16:41:36.197Z,14.40
2023-04-18T16:44:03.827Z,14.40
2023-04-18T16:46:32.594Z,14.40
2023-04-18T16:49:01.846Z,14.40
2023-04-18T16:51:29.779Z,14.40
2023-04-18T16:53:57.358Z,14.40
2023-04-18T16:56:25.169Z,14.40
2023-04-18T16:58:52.756Z,14.40
2023-04-18T17:01:20.796Z,14.40
2023-04-18T17:03:48.495Z,14.40
2023-04-18T17:06:18.196Z,14.40
2023-04-18T17:08:46.373Z,14.30
2023-04-18T17:11:13.861Z,14.30
2023-04-18T17:13:41.562Z,14.30
2023-04-18T17:16:09.145Z,14.30
2023-04-18T17:18:36.743Z,14.30
2023-04-18T17:21:04.531Z,14.30
2023-04-18T17:23:32.963Z,14.30
2023-04-18T17:26:00.851Z,14.30
2023-04-18T17:28:28.414Z,14.30
2023-04-18T17:30:57.561Z,14.30
2023-04-18T17:33:25.091Z,14.30
2023-04-18T17:35:52.802Z,14.20
2023-04-18T17:38:20.397Z,14.20
2023-04-18T17:40:47.993Z,14.20
2023-04-18T17:43:15.510Z,14.20
2023-04-18T17:45:44.363Z,14.20
2023-04-18T17:48:12.073Z,14.20
2023-04-18T17:50:41.419Z,14.20
2023-04-18T17:53:08.924Z,14.20
2023-04-18T17:55:36.425Z,14.10
2023-04-18T17:58:05.448Z,14.10
2023-04-18T18:00:33.060Z,14.10
2023-04-18T18:03:02.079Z,14.10
2023-04-18T18:05:30.666Z,14.10
2023-04-18T18:07:59.864Z,14.10
2023-04-18T18:10:27.919Z,14.00
2023-04-18T18:12:55.454Z,14.00
2023-04-18T18:15:24.413Z,14.00
2023-04-18T18:17:52.372Z,14.00
2023-04-18T18:20:20.298Z,14.00
2023-04-18T18:22:47.915Z,14.00
2023-04-18T18:25:15.513Z,14.00
2023-04-18T18:27:43.090Z,13.90
2023-04-18T18:30:11.064Z,13.90
2023-04-18T18:32:38.711Z,13.90
2023-04-18T18:35:06.607Z,13.90
2023-04-18T18:37:34.234Z,13.90
2023-04-18T18:40:07.637Z,13.80
2023-04-18T18:42:35.198Z,13.80
2023-04-18T18:45:03.845Z,13.80
2023-04-18T18:47:31.785Z,13.80
2023-04-18T18:49:59.328Z,13.80
2023-04-18T18:52:29.913Z,13.70
2023-04-18T18:54:57.450Z,13.70
2023-04-18T18:57:25.344Z,13.70
2023-04-18T18:59:55.164Z,13.70
2023-04-18T19:02:23.467Z,13.70
2023-04-18T19:04:51.178Z,13.60
2023-04-18T19:07:18.796Z,13.60
2023-04-18T19:09:47.184Z,13.60
2023-04-18T19:12:14.723Z,13.60
2023-04-18T19:14:42.494Z,13.60
2023-04-18T19:17:10.071Z,13.60
2023-04-18T19:19:37.589Z,13.50
2023-04-18T19:22:06.733Z,13.50
2023-04-18T19:24:35.202Z,13.50
2023-04-18T19:27:03.182Z,13.50
2023-04-18T19:29:32.766Z,13.40
2023-04-18T19:32:00.792Z,13.40
2023-04-18T19:34:28.385Z,13.40
2023-04-18T19:36:56.060Z,13.40
2023-04-18T19:39:23.550Z,13.40
2023-04-18T19:41:51.130Z,13.30
2023-04-18T19:44:18.662Z,13.30
2023-04-18T19:46:46.188Z,13.30
2023-04-18T19:49:14.208Z,13.30
2023-04-18T19:51:42.031Z,13.30
2023-04-18T19:54:09.732Z,13.20
2023-04-18T19:56:37.249Z,13.20
2023-04-18T19:59:06.173Z,13.20
2023-04-18T20:01:33.712Z,13.20
2023-04-18T20:04:01.535Z,13.10
2023-04-18T20:06:29.620Z,13.20
2023-04-18T20:08:57.393Z,13.10
2023-04-18T20:11:25.310Z,13.10
2023-04-18T20:13:55.171Z,13.10
2023-04-18T20:16:23.954Z,13.10
2023-04-18T20:18:52.993Z,13.00
2023-04-18T20:21:22.252Z,13.00
2023-04-18T20:23:49.848Z,13.00
2023-04-18T20:26:17.408Z,12.90
2023-04-18T20:28:44.929Z,12.90
2023-04-18T20:31:12.966Z,12.90
2023-04-18T20:33:40.680Z,12.90
2023-04-18T20:36:08.567Z,12.90
2023-04-18T20:38:37.197Z,12.80
2023-04-18T20:41:06.445Z,12.80
2023-04-18T20:43:38.125Z,12.80
2023-04-18T20:46:07.219Z,12.80
2023-04-18T20:48:34.755Z,12.70
2023-04-18T20:51:02.265Z,12.70
2023-04-18T20:53:30.104Z,12.70
2023-04-18T20:55:57.693Z,12.70
2023-04-18T20:58:25.406Z,12.70
2023-04-18T21:00:52.992Z,12.70
2023-04-18T21:03:20.682Z,12.60
2023-04-18T21:05:48.327Z,12.60
2023-04-18T21:08:15.857Z,12.60
2023-04-18T21:10:43.599Z,12.50
2023-04-18T21:13:12.822Z,12.50
2023-04-18T21:15:42.691Z,12.50
2023-04-18T21:18:10.881Z,12.50
2023-04-18T21:20:38.400Z,12.40
2023-04-18T21:23:06.360Z,12.40
2023-04-18T21:25:33.983Z,12.40
2023-04-18T21:28:01.692Z,12.40
2023-04-18T21:30:29.310Z,12.40
2023-04-18T21:32:56.967Z,12.30
2023-04-18T21:35:25.101Z,12.30
2023-04-18T21:37:52.839Z,12.30
2023-04-18T21:40:20.531Z,12.30
2023-04-18T21:42:51.195Z,12.30
2023-04-18T21:45:21.696Z,12.20
2023-04-18T21:47:49.957Z,12.20
2023-04-18T21:50:17.597Z,12.20
2023-04-18T21:52:45.217Z,12.20
2023-04-18T21:55:12.959Z,12.10
2023-04-18T21:57:40.509Z,12.20
2023-04-18T22:00:10.350Z,12.10
2023-04-18T22:02:38.361Z,12.10
2023-04-18T22:05:07.929Z,12.00
2023-04-18T22:07:43.346Z,12.00
2023-04-18T22:10:18.778Z,12.00
2023-04-18T22:12:46.542Z,12.00
2023-04-18T22:15:14.101Z,12.00
2023-04-18T22:17:42.766Z,11.90
2023-04-18T22:20:11.514Z,11.90
2023-04-18T22:22:39.046Z,11.90
2023-04-18T22:25:07.613Z,11.90
2023-04-18T22:27:38.980Z,11.90
2023-04-18T22:30:07.131Z,11.90
2023-04-18T22:32:34.683Z,11.80
2023-04-18T22:35:03.701Z,11.80
2023-04-18T22:37:31.606Z,11.80
2023-04-18T22:39:59.168Z,11.80
2023-04-18T22:42:26.697Z,11.70
2023-04-18T22:44:54.286Z,11.70
2023-04-18T22:47:22.596Z,11.70
2023-04-18T22:49:50.245Z,11.70
2023-04-18T22:52:17.859Z,11.60
2023-04-18T22:54:47.350Z,11.60
2023-04-18T22:57:14.822Z,11.60
2023-04-18T22:59:42.353Z,11.60
2023-04-18T23:02:10.822Z,11.50
2023-04-18T23:04:40.248Z,11.50
2023-04-18T23:07:08.236Z,11.50
2023-04-18T23:09:35.969Z,11.40
2023-04-18T23:12:03.736Z,11.40
2023-04-18T23:14:32.077Z,11.40
2023-04-18T23:16:59.629Z,11.40
2023-04-18T23:19:27.306Z,11.30
2023-04-18T23:21:54.835Z,11.30
2023-04-18T23:24:22.407Z,11.30
2023-04-18T23:26:49.935Z,11.30
2023-04-18T23:29:17.605Z,11.30
2023-04-18T23:31:45.267Z,11.20
2023-04-18T23:34:12.927Z,11.20
2023-04-18T23:36:40.808Z,11.20
2023-04-18T23:39:08.908Z,11.10
2023-04-18T23:41:36.405Z,11.10
2023-04-18T23:44:03.919Z,11.10
2023-04-18T23:46:31.495Z,11.10
2023-04-18T23:48:59.036Z,11.10
2023-04-18T23:51:27.079Z,11.10
2023-04-18T23:53:54.625Z,11.00
2023-04-18T23:56:23.396Z,11.00
2023-04-18T23:58:51.112Z,11.00
